createdAt,value
2023-05-11T00:01:04.914Z,10.90
2023-05-11T00:03:33.212Z,11.47
2023-05-11T00:06:03.101Z,10.70
2023-05-11T00:08:31.136Z,11.73
2023-05-11T00:11:00.787Z,11.23
2023-05-11T00:13:29.024Z,10.87
2023-05-11T00:15:57.148Z,11.20
2023-05-11T00:18:25.232Z,11.50
2023-05-11T00:20:53.237Z,11.07
2023-05-11T00:23:22.595Z,11.03
2023-05-11T00:25:50.579Z,11.40
2023-05-11T00:28:18.596Z,11.23
2023-05-11T00:30:46.559Z,11.20
2023-05-11T00:33:14.693Z,10.43
2023-05-11T00:35:42.877Z,11.23
2023-05-11T00:38:11.332Z,10.37
2023-05-11T00:40:40.907Z,10.67
2023-05-11T00:43:08.979Z,10.23
2023-05-11T00:45:37.380Z,10.83
2023-05-11T00:48:05.999Z,10.40
2023-05-11T00:50:34.121Z,10.70
2023-05-11T00:53:02.772Z,10.53
2023-05-11T00:55:31.500Z,9.57
2023-05-11T00:58:01.354Z,9.63
2023-05-11T01:00:29.406Z,10.17
2023-05-11T01:02:57.701Z,10.13
2023-05-11T01:05:31.261Z,9.57
2023-05-11T01:08:06.551Z,9.70
2023-05-11T01:10:40.814Z,9.90
2023-05-11T01:13:14.943Z,10.20
2023-05-11T01:15:47.878Z,10.10
2023-05-11T01:18:24.994Z,9.63
2023-05-11T01:20:57.744Z,9.30
2023-05-11T01:24:01.279Z,9.00
2023-05-11T01:26:46.409Z,9.10
2023-05-11T01:29:53.102Z,9.80
2023-05-11T01:32:26.759Z,9.57
2023-05-11T01:35:11.930Z,9.40
2023-05-11T01:37:42.566Z,9.37
2023-05-11T01:40:16.515Z,8.40
2023-05-11T01:42:49.016Z,8.97
2023-05-11T01:45:18.263Z,8.33
2023-05-11T01:47:51.432Z,8.27
2023-05-11T01:50:21.869Z,8.13
2023-05-11T01:52:51.950Z,8.07
2023-05-11T01:55:23.716Z,8.50
2023-05-11T01:57:55.736Z,8.40
2023-05-11T02:00:24.787Z,7.83
2023-05-11T02:02:55.733Z,8.67
2023-05-11T02:05:25.111Z,6.80
2023-05-11T02:07:55.303Z,8.17
2023-05-11T02:10:26.407Z,8.33
2023-05-11T02:12:55.401Z,8.30
2023-05-11T02:15:24.976Z,8.03
2023-05-11T02:17:55.277Z,8.27
2023-05-11T02:20:25.019Z,8.13
2023-05-11T02:22:54.520Z,8.03
2023-05-11T02:25:23.767Z,8.17
2023-05-11T02:27:52.191Z,7.80
2023-05-11T02:30:20.431Z,7.77
2023-05-11T02:32:53.047Z,7.47
2023-05-11T02:35:26.525Z,6.87
2023-05-11T02:37:59.303Z,7.07
2023-05-11T02:40:31.588Z,6.77
2023-05-11T02:43:08.331Z,6.67
2023-05-11T02:45:38.053Z,6.53
2023-05-11T02:48:09.227Z,6.50
2023-05-11T02:50:40.873Z,6.47
2023-05-11T02:53:15.447Z,6.53
2023-05-11T02:55:43.851Z,5.70
2023-05-11T02:58:12.376Z,6.10
2023-05-11T03:00:40.583Z,6.33
2023-05-11T03:03:09.405Z,6.20
2023-05-11T03:05:39.007Z,5.87
2023-05-11T03:08:07.273Z,5.83
2023-05-11T03:10:35.388Z,6.07
2023-05-11T03:13:04.582Z,5.60
2023-05-11T03:15:33.370Z,5.90
2023-05-11T03:18:02.463Z,5.87
2023-05-11T03:20:31.962Z,5.00
2023-05-11T03:23:02.488Z,5.13
2023-05-11T03:25:31.269Z,4.93
2023-05-11T03:28:00.809Z,4.60
2023-05-11T03:30:30.222Z,5.43
2023-05-11T03:32:58.641Z,4.90
2023-05-11T03:35:29.316Z,4.90
2023-05-11T03:37:58.526Z,4.40
2023-05-11T03:40:30.074Z,4.60
2023-05-11T03:43:00.127Z,4.53
2023-05-11T03:45:29.931Z,4.73
2023-05-11T03:47:58.703Z,4.50
2023-05-11T03:50:28.034Z,4.40
2023-05-11T03:52:57.112Z,4.50
2023-05-11T03:55:25.137Z,4.17
2023-05-11T03:57:54.691Z,4.53
2023-05-11T04:00:23.694Z,4.40
2023-05-11T04:02:52.085Z,4.30
2023-05-11T04:05:20.288Z,3.90
2023-05-11T04:07:48.364Z,4.30
2023-05-11T04:10:16.522Z,4.37
2023-05-11T04:12:44.683Z,3.87
2023-05-11T04:15:14.156Z,4.30
2023-05-11T04:17:42.438Z,4.00
2023-05-11T04:20:11.019Z,4.00
2023-05-11T04:22:39.285Z,4.03
2023-05-11T04:25:08.006Z,4.17
2023-05-11T04:27:36.429Z,4.00
2023-05-11T04:30:04.560Z,3.73
2023-05-11T04:32:33.960Z,3.70
2023-05-11T04:35:02.024Z,4.13
2023-05-11T04:37:30.025Z,4.37
2023-05-11T04:39:58.277Z,3.80
2023-05-11T04:42:26.265Z,4.00
2023-05-11T04:44:55.302Z,4.00
2023-05-11T04:47:23.301Z,3.67
2023-05-11T04:49:52.656Z,3.77
2023-05-11T04:52:20.870Z,4.33
2023-05-11T04:54:48.860Z,3.87
2023-05-11T04:57:16.848Z,4.00
2023-05-11T04:59:44.976Z,4.07
2023-05-11T05:02:13.149Z,3.60
2023-05-11T05:04:41.124Z,3.70
2023-05-11T05:07:10.599Z,3.57
2023-05-11T05:09:38.626Z,3.97
2023-05-11T05:12:07.005Z,4.13
2023-05-11T05:14:35.073Z,3.93
2023-05-11T05:17:03.118Z,3.70
2023-05-11T05:19:31.778Z,3.53
2023-05-11T05:21:59.893Z,3.80
2023-05-11T05:24:29.271Z,3.43
2023-05-11T05:26:57.314Z,3.40
2023-05-11T05:29:25.395Z,3.50
2023-05-11T05:31:53.426Z,3.70
2023-05-11T05:34:21.433Z,3.83
2023-05-11T05:36:49.397Z,3.33
2023-05-11T05:39:17.375Z,3.50
2023-05-11T05:41:46.760Z,3.20
2023-05-11T05:44:14.755Z,3.67
2023-05-11T05:46:42.798Z,3.43
2023-05-11T05:49:10.850Z,2.90
2023-05-11T05:51:38.947Z,3.57
2023-05-11T05:54:07.057Z,3.70
2023-05-11T05:56:35.206Z,3.77
2023-05-11T05:59:04.649Z,3.30
2023-05-11T06:01:32.640Z,3.50
2023-05-11T06:04:00.969Z,3.50
2023-05-11T06:06:29.080Z,3.07
2023-05-11T06:08:57.556Z,3.20
2023-05-11T06:11:25.678Z,3.50
2023-05-11T06:14:00.334Z,2.90
2023-05-11T06:16:30.262Z,2.93
2023-05-11T06:18:58.363Z,3.33
2023-05-11T06:21:26.788Z,3.50
2023-05-11T06:23:59.350Z,3.00
2023-05-11T06:26:28.578Z,3.10
2023-05-11T06:28:56.556Z,2.80
2023-05-11T06:31:24.726Z,3.00
2023-05-11T06:33:59.542Z,3.23
2023-05-11T06:36:27.848Z,3.07
2023-05-11T06:38:55.875Z,3.40
2023-05-11T06:41:24.592Z,2.80
2023-05-11T06:44:01.018Z,3.13
2023-05-11T06:46:29.329Z,2.70
2023-05-11T06:48:59.001Z,2.77
2023-05-11T06:51:26.989Z,3.00
2023-05-11T06:53:55.020Z,3.10
2023-05-11T06:56:22.994Z,3.27
2023-05-11T06:58:51.019Z,3.03
2023-05-11T07:01:19.034Z,2.87
2023-05-11T07:03:48.850Z,3.30
2023-05-11T07:06:18.577Z,2.60
2023-05-11T07:08:46.566Z,2.45
2023-05-11T07:11:15.467Z,2.88
2023-05-11T07:13:43.470Z,2.70
2023-05-11T07:16:11.491Z,2.60
2023-05-11T07:18:39.530Z,2.65
2023-05-11T07:21:07.733Z,2.80
2023-05-11T07:23:37.102Z,2.63
2023-05-11T07:26:09.421Z,2.83
2023-05-11T07:28:37.554Z,2.53
2023-05-11T07:31:07.024Z,2.20
2023-05-11T07:33:35.568Z,2.38
2023-05-11T07:36:03.574Z,2.13
2023-05-11T07:38:31.570Z,2.45
2023-05-11T07:41:01.060Z,1.90
2023-05-11T07:43:29.212Z,2.03
2023-05-11T07:45:57.420Z,2.00
2023-05-11T07:48:25.545Z,2.00
2023-05-11T07:50:53.556Z,1.85
2023-05-11T07:53:21.560Z,2.13
2023-05-11T07:55:49.752Z,2.33
2023-05-11T07:58:19.208Z,2.10
2023-05-11T08:00:47.212Z,2.10
2023-05-11T08:03:15.823Z,1.98
2023-05-11T08:05:43.966Z,2.15
2023-05-11T08:08:12.015Z,2.20
2023-05-11T08:10:40.101Z,1.85
2023-05-11T08:13:08.176Z,1.90
2023-05-11T08:15:37.796Z,2.03
2023-05-11T08:18:06.797Z,1.70
2023-05-11T08:20:34.874Z,2.25
2023-05-11T08:23:03.112Z,2.22
2023-05-11T08:25:31.112Z,2.35
2023-05-11T08:27:59.145Z,1.90
2023-05-11T08:30:27.123Z,2.08
2023-05-11T08:32:59.089Z,2.22
2023-05-11T08:35:27.667Z,1.90
2023-05-11T08:37:55.639Z,2.30
2023-05-11T08:40:27.653Z,1.95
2023-05-11T08:42:57.144Z,1.85
2023-05-11T08:45:26.826Z,1.83
2023-05-11T08:47:56.751Z,1.90
2023-05-11T08:50:25.374Z,1.85
2023-05-11T08:52:53.408Z,2.67
2023-05-11T08:55:23.346Z,2.22
2023-05-11T08:57:54.389Z,2.00
2023-05-11T09:00:23.492Z,2.17
2023-05-11T09:02:52.883Z,2.13
2023-05-11T09:05:23.122Z,2.42
2023-05-11T09:07:54.198Z,2.00
2023-05-11T09:10:22.372Z,2.08
2023-05-11T09:12:50.553Z,2.08
2023-05-11T09:15:18.798Z,1.90
2023-05-11T09:17:47.042Z,2.00
2023-05-11T09:20:15.100Z,2.20
2023-05-11T09:22:46.000Z,2.15
2023-05-11T09:25:15.023Z,1.75
2023-05-11T09:27:43.596Z,1.77
2023-05-11T09:30:13.716Z,1.88
2023-05-11T09:32:50.057Z,1.80
2023-05-11T09:35:22.776Z,1.90
2023-05-11T09:38:06.376Z,1.95
2023-05-11T09:40:36.608Z,2.00
2023-05-11T09:43:05.102Z,1.70
2023-05-11T09:45:37.479Z,1.63
2023-05-11T09:48:06.404Z,1.67
2023-05-11T09:50:35.619Z,1.60
2023-05-11T09:53:05.038Z,1.60
2023-05-11T09:55:33.172Z,2.00
2023-05-11T09:58:02.334Z,1.50
2023-05-11T10:00:30.691Z,1.92
2023-05-11T10:03:03.062Z,1.50
2023-05-11T10:05:32.451Z,1.60
2023-05-11T10:08:01.602Z,1.83
2023-05-11T10:10:32.971Z,1.58
2023-05-11T10:13:02.580Z,1.40
2023-05-11T10:15:31.953Z,1.00
2023-05-11T10:18:01.335Z,1.08
2023-05-11T10:20:29.609Z,1.27
2023-05-11T10:22:57.744Z,1.40
2023-05-11T10:25:27.402Z,1.30
2023-05-11T10:27:58.254Z,1.30
2023-05-11T10:30:26.595Z,1.40
2023-05-11T10:32:56.627Z,1.23
2023-05-11T10:35:30.868Z,1.40
2023-05-11T10:37:59.417Z,1.50
2023-05-11T10:40:27.576Z,1.10
2023-05-11T10:43:24.983Z,1.45
2023-05-11T10:45:57.737Z,0.95
2023-05-11T10:49:07.266Z,1.17
2023-05-11T10:51:55.624Z,1.23
2023-05-11T10:54:35.293Z,1.25
2023-05-11T10:57:22.870Z,1.25
2023-05-11T11:00:31.267Z,1.70
2023-05-11T11:02:59.632Z,1.50
2023-05-11T11:05:38.149Z,1.50
2023-05-11T11:08:08.999Z,1.50
2023-05-11T11:10:38.933Z,1.50
2023-05-11T11:13:09.190Z,1.52
2023-05-11T11:16:16.756Z,1.67
2023-05-11T11:18:45.019Z,1.30
2023-05-11T11:21:15.849Z,1.40
2023-05-11T11:23:50.116Z,1.55
2023-05-11T11:26:39.492Z,1.30
2023-05-11T11:29:12.211Z,1.67
2023-05-11T11:31:42.597Z,1.60
2023-05-11T11:34:39.287Z,1.42
2023-05-11T11:37:09.789Z,1.40
2023-05-11T11:39:56.902Z,1.33
2023-05-11T11:42:37.777Z,1.55
2023-05-11T11:45:31.553Z,1.35
2023-05-11T11:48:15.569Z,1.40
2023-05-11T11:50:45.979Z,1.70
2023-05-11T11:53:35.078Z,1.30
2023-05-11T11:56:03.188Z,1.40
2023-05-11T11:58:59.631Z,1.35
2023-05-11T12:01:29.876Z,1.27
2023-05-11T12:04:47.652Z,1.25
2023-05-11T12:07:17.042Z,1.38
2023-05-11T12:09:47.538Z,1.58
2023-05-11T12:12:19.970Z,1.40
2023-05-11T12:14:49.878Z,1.30
2023-05-11T12:17:25.580Z,1.60
2023-05-11T12:19:55.822Z,1.20
2023-05-11T12:22:24.674Z,1.50
2023-05-11T12:24:57.248Z,1.40
2023-05-11T12:27:26.856Z,1.45
2023-05-11T12:29:54.840Z,1.35
2023-05-11T12:32:30.520Z,1.58
2023-05-11T12:35:01.149Z,1.45
2023-05-11T12:37:29.804Z,1.42
2023-05-11T12:39:58.574Z,1.40
2023-05-11T12:42:27.475Z,1.70
2023-05-11T12:44:56.950Z,1.75
2023-05-11T12:47:25.168Z,1.48
2023-05-11T12:49:53.426Z,1.55
2023-05-11T12:52:24.913Z,1.40
2023-05-11T12:54:53.890Z,1.65
2023-05-11T12:57:27.220Z,1.40
2023-05-11T13:00:10.937Z,1.40
2023-05-11T13:02:46.208Z,1.50
2023-05-11T13:05:15.099Z,1.98
2023-05-11T13:07:45.147Z,1.30
2023-05-11T13:10:14.074Z,1.13
2023-05-11T13:12:52.344Z,1.50
2023-05-11T13:15:21.924Z,1.25
2023-05-11T13:17:58.108Z,1.40
2023-05-11T13:20:29.604Z,1.20
2023-05-11T13:23:09.932Z,1.35
2023-05-11T13:25:54.295Z,1.45
2023-05-11T13:28:25.717Z,1.30
2023-05-11T13:31:00.866Z,1.30
2023-05-11T13:33:29.283Z,1.40
2023-05-11T13:35:57.371Z,1.40
2023-05-11T13:38:26.731Z,1.50
2023-05-11T13:40:54.994Z,1.10
2023-05-11T13:43:22.987Z,1.35
2023-05-11T13:45:51.288Z,1.13
2023-05-11T13:48:19.312Z,1.30
2023-05-11T13:50:47.323Z,1.00
2023-05-11T13:53:15.311Z,1.33
2023-05-11T13:55:44.795Z,1.23
2023-05-11T13:58:12.785Z,1.20
2023-05-11T14:00:41.099Z,1.30
2023-05-11T14:03:09.245Z,1.25
2023-05-11T14:05:39.264Z,1.23
2023-05-11T14:08:12.241Z,1.17
2023-05-11T14:10:40.274Z,1.50
2023-05-11T14:13:09.700Z,1.30
2023-05-11T14:15:38.450Z,4.05
2023-05-11T14:18:08.114Z,1.48
2023-05-11T14:20:38.607Z,1.50
2023-05-11T14:23:07.310Z,1.30
2023-05-11T14:25:36.217Z,1.25
2023-05-11T14:28:04.386Z,1.05
2023-05-11T14:30:34.066Z,1.30
2023-05-11T14:33:02.187Z,1.27
2023-05-11T14:35:30.250Z,1.20
2023-05-11T14:37:58.524Z,1.67
2023-05-11T14:40:26.503Z,1.40
2023-05-11T14:42:54.577Z,1.30
2023-05-11T14:45:22.667Z,1.10
2023-05-11T14:47:52.141Z,1.30
2023-05-11T14:50:20.264Z,1.50
2023-05-11T14:52:48.256Z,1.40
2023-05-11T14:55:16.472Z,1.30
2023-05-11T14:57:44.721Z,1.23
2023-05-11T15:00:13.876Z,1.50
2023-05-11T15:02:42.015Z,1.20
2023-05-11T15:05:11.629Z,1.40
2023-05-11T15:07:39.671Z,1.30
2023-05-11T15:10:09.422Z,1.00
2023-05-11T15:12:37.471Z,1.38
2023-05-11T15:15:06.351Z,1.58
2023-05-11T15:17:34.400Z,1.23
2023-05-11T15:20:02.921Z,1.70
2023-05-11T15:22:32.605Z,1.30
2023-05-11T15:25:00.590Z,1.40
2023-05-11T15:27:28.694Z,1.30
2023-05-11T15:29:56.705Z,1.15
2023-05-11T15:32:24.754Z,1.30
2023-05-11T15:34:59.373Z,1.42
2023-05-11T15:37:28.740Z,1.45
2023-05-11T15:39:58.271Z,1.30
2023-05-11T15:42:26.502Z,1.30
2023-05-11T15:44:54.469Z,1.40
2023-05-11T15:47:22.565Z,1.42
2023-05-11T15:49:50.735Z,1.58
2023-05-11T15:52:18.705Z,2.13
2023-05-11T15:54:46.711Z,1.33
2023-05-11T15:57:16.240Z,1.40
2023-05-11T15:59:44.248Z,1.30
2023-05-11T16:02:12.452Z,1.23
2023-05-11T16:04:40.450Z,1.30
2023-05-11T16:07:08.474Z,1.40
2023-05-11T16:09:36.477Z,1.20
2023-05-11T16:12:04.699Z,1.70
2023-05-11T16:14:34.196Z,1.30
2023-05-11T16:17:02.807Z,1.60
2023-05-11T16:19:33.420Z,1.40
2023-05-11T16:22:01.447Z,1.52
2023-05-11T16:24:32.120Z,1.13
2023-05-11T16:27:01.508Z,1.35
2023-05-11T16:29:29.575Z,1.23
2023-05-11T16:31:58.956Z,1.17
2023-05-11T16:34:27.301Z,1.30
2023-05-11T16:36:57.193Z,1.30
2023-05-11T16:39:26.719Z,1.38
2023-05-11T16:41:54.703Z,1.42
2023-05-11T16:44:22.694Z,1.67
2023-05-11T16:46:50.750Z,1.52
2023-05-11T16:49:20.159Z,1.90
2023-05-11T16:51:48.251Z,1.30
2023-05-11T16:54:16.390Z,1.48
2023-05-11T16:56:44.430Z,1.23
2023-05-11T16:59:12.556Z,1.35
2023-05-11T17:01:40.609Z,1.10
2023-05-11T17:04:08.827Z,1.75
2023-05-11T17:06:38.294Z,1.35
2023-05-11T17:09:06.293Z,1.40
2023-05-11T17:11:34.333Z,1.52
2023-05-11T17:14:02.796Z,1.48
2023-05-11T17:16:30.834Z,1.30
2023-05-11T17:18:59.259Z,1.45
2023-05-11T17:21:28.608Z,1.15
2023-05-11T17:23:58.144Z,1.30
2023-05-11T17:26:35.407Z,1.40
2023-05-11T17:29:11.971Z,1.52
2023-05-11T17:31:40.097Z,1.33
2023-05-11T17:34:09.071Z,1.50
2023-05-11T17:36:37.280Z,1.58
2023-05-11T17:39:06.707Z,1.48
2023-05-11T17:41:34.717Z,1.40
2023-05-11T17:44:02.805Z,1.17
2023-05-11T17:46:30.874Z,1.58
2023-05-11T17:48:58.910Z,1.40
2023-05-11T17:51:26.974Z,1.50
2023-05-11T17:53:56.061Z,1.50
2023-05-11T17:56:25.492Z,1.80
2023-05-11T17:58:53.538Z,1.35
2023-05-11T18:01:22.725Z,1.73
2023-05-11T18:03:50.884Z,1.65
2023-05-11T18:06:18.967Z,1.13
2023-05-11T18:08:47.043Z,1.73
2023-05-11T18:11:15.083Z,1.65
2023-05-11T18:13:44.423Z,1.60
2023-05-11T18:16:12.463Z,1.63
2023-05-11T18:18:42.288Z,1.73
2023-05-11T18:21:11.367Z,2.30
2023-05-11T18:23:39.663Z,1.55
2023-05-11T18:26:08.244Z,1.95
2023-05-11T18:28:36.250Z,1.60
2023-05-11T18:31:05.741Z,1.55
2023-05-11T18:33:33.805Z,1.75
2023-05-11T18:36:03.650Z,2.40
2023-05-11T18:38:32.331Z,1.80
2023-05-11T18:41:05.591Z,1.50
2023-05-11T18:43:34.301Z,1.50
2023-05-11T18:46:02.304Z,1.98
2023-05-11T18:48:31.663Z,1.65
2023-05-11T18:50:59.650Z,1.40
2023-05-11T18:53:27.815Z,1.45
2023-05-11T18:55:56.087Z,1.60
2023-05-11T18:58:24.362Z,1.88
2023-05-11T19:00:52.982Z,2.45
2023-05-11T19:03:22.076Z,1.65
2023-05-11T19:05:52.212Z,1.65
2023-05-11T19:08:20.237Z,1.73
2023-05-11T19:10:49.460Z,1.90
2023-05-11T19:13:17.518Z,1.50
2023-05-11T19:15:45.546Z,1.98
2023-05-11T19:18:13.636Z,1.80
2023-05-11T19:20:41.756Z,1.70
2023-05-11T19:23:11.180Z,1.85
2023-05-11T19:25:39.282Z,1.80
2023-05-11T19:28:07.351Z,1.73
2023-05-11T19:30:35.321Z,1.92
2023-05-11T19:33:03.392Z,1.80
2023-05-11T19:35:31.801Z,1.60
2023-05-11T19:37:59.849Z,1.90
2023-05-11T19:43:00.986Z,1.63
2023-05-11T19:45:31.411Z,1.98
2023-05-11T19:47:59.844Z,1.77
2023-05-11T19:50:27.936Z,2.00
2023-05-11T19:52:56.600Z,1.92
2023-05-11T19:55:24.630Z,2.17
2023-05-11T19:57:54.031Z,2.05
2023-05-11T20:00:25.026Z,2.10
2023-05-11T20:02:53.178Z,2.10
2023-05-11T20:05:21.668Z,2.22
2023-05-11T20:07:49.875Z,2.05
2023-05-11T20:10:18.219Z,1.93
2023-05-11T20:12:46.601Z,1.88
2023-05-11T20:15:15.997Z,1.83
2023-05-11T20:17:44.219Z,2.00
2023-05-11T20:20:13.141Z,2.03
2023-05-11T20:22:41.149Z,1.87
2023-05-11T20:25:16.995Z,1.90
2023-05-11T20:27:46.332Z,1.93
2023-05-11T20:30:16.265Z,1.92
2023-05-11T20:35:15.946Z,2.00
2023-05-11T20:37:44.271Z,2.25
2023-05-11T20:40:13.666Z,2.17
2023-05-11T20:42:41.832Z,1.92
2023-05-11T20:45:11.081Z,2.13
2023-05-11T20:47:40.520Z,1.87
2023-05-11T20:50:10.028Z,1.97
2023-05-11T20:52:38.404Z,2.17
2023-05-11T20:55:07.285Z,1.90
2023-05-11T20:57:35.347Z,2.20
2023-05-11T21:00:07.369Z,2.00
2023-05-11T21:02:36.079Z,1.95
2023-05-11T21:05:05.750Z,2.27
2023-05-11T21:07:33.788Z,2.15
2023-05-11T21:10:01.905Z,1.80
2023-05-11T21:12:29.969Z,2.33
2023-05-11T21:14:58.147Z,2.10
2023-05-11T21:17:26.291Z,2.23
2023-05-11T21:19:54.327Z,2.27
2023-05-11T21:22:23.776Z,2.42
2023-05-11T21:24:51.804Z,2.10
2023-05-11T21:27:19.806Z,2.28
2023-05-11T21:29:48.196Z,2.57
2023-05-11T21:32:16.356Z,2.40
2023-05-11T21:34:44.409Z,2.63
2023-05-11T21:37:14.640Z,2.00
2023-05-11T21:39:44.045Z,2.20
2023-05-11T21:42:12.043Z,2.30
2023-05-11T21:44:40.069Z,2.37
2023-05-11T21:47:08.246Z,2.20
2023-05-11T21:49:36.742Z,2.30
2023-05-11T21:52:05.861Z,2.30
2023-05-11T21:54:33.918Z,2.00
2023-05-11T21:57:03.715Z,2.60
2023-05-11T21:59:31.705Z,2.57
2023-05-11T22:01:59.803Z,2.30
2023-05-11T22:04:27.865Z,2.10
2023-05-11T22:06:59.668Z,2.10
2023-05-11T22:09:29.982Z,2.13
2023-05-11T22:11:58.202Z,2.23
2023-05-11T22:14:27.621Z,2.57
2023-05-11T22:16:55.618Z,2.23
2023-05-11T22:19:23.612Z,2.70
2023-05-11T22:21:51.668Z,2.63
2023-05-11T22:24:21.205Z,2.23
2023-05-11T22:26:49.211Z,2.80
2023-05-11T22:29:17.204Z,2.27
2023-05-11T22:31:46.613Z,2.27
2023-05-11T22:34:14.607Z,2.20
2023-05-11T22:36:42.625Z,2.77
2023-05-11T22:39:11.777Z,2.50
2023-05-11T22:41:39.824Z,2.80
2023-05-11T22:44:09.384Z,2.70
2023-05-11T22:46:37.422Z,2.93
2023-05-11T22:49:06.778Z,2.90
2023-05-11T22:51:34.767Z,4.60
2023-05-11T22:54:03.441Z,3.33
2023-05-11T22:56:32.224Z,3.10
2023-05-11T22:59:00.319Z,3.20
2023-05-11T23:02:15.238Z,2.57
2023-05-11T23:04:44.762Z,3.17
2023-05-11T23:07:12.945Z,3.27
2023-05-11T23:09:41.082Z,3.03
2023-05-11T23:12:09.686Z,3.10
2023-05-11T23:14:37.709Z,3.53
2023-05-11T23:17:05.755Z,3.40
2023-05-11T23:19:33.848Z,3.33
2023-05-11T23:22:03.298Z,3.63
2023-05-11T23:24:31.360Z,3.53
2023-05-11T23:26:59.405Z,3.87
2023-05-11T23:29:27.976Z,3.40
2023-05-11T23:31:56.900Z,3.70
2023-05-11T23:34:24.959Z,3.87
2023-05-11T23:36:52.977Z,3.70
2023-05-11T23:39:22.375Z,3.97
2023-05-11T23:41:50.422Z,4.47
2023-05-11T23:44:18.667Z,3.57
2023-05-11T23:46:46.887Z,3.77
2023-05-11T23:49:14.961Z,4.03
2023-05-11T23:51:43.002Z,3.90
2023-05-11T23:54:11.493Z,3.80
2023-05-11T23:56:40.930Z,3.87
2023-05-11T23:59:08.904Z,3.97
